Time;durP1;ratioP1;P1;durP2;ratioP2;P2;SDS_P1;SDS_P2;PMS_P1;PMS_P2;Temp;Humidity;BMP_temperature;BMP_pressure;BME280_temperature;BME280_humidity;BME280_pressure;Samples;Min_cycle;Max_cycle;Signal;HPM_P1;HPM_P2
2022/04/26 03:37:12;;;;;;;18.93;12.83;;;8.40;99.90;;;;;;5020783;28;20285;-75
2022/04/26 03:39:39;;;;;;;22.53;14.10;;;8.40;99.90;;;;;;5017813;28;20194;-75
2022/04/26 03:42:05;;;;;;;19.23;13.33;;;8.50;99.90;;;;;;5001261;28;20186;-75
2022/04/26 03:44:31;;;;;;;21.43;14.20;;;8.50;99.90;;;;;;5001416;28;20182;-75
2022/04/26 03:46:57;;;;;;;20.80;13.10;;;8.50;99.90;;;;;;5034176;28;20359;-75
2022/04/26 03:49:23;;;;;;;21.20;13.60;;;8.50;99.90;;;;;;5017268;28;20226;-75
2022/04/26 03:51:52;;;;;;;17.67;12.63;;;8.40;99.90;;;;;;5033911;28;20272;-75
2022/04/26 03:54:22;;;;;;;18.20;13.07;;;8.40;99.90;;;;;;5017784;28;20171;-75
2022/04/26 03:56:48;;;;;;;20.73;12.97;;;8.30;99.90;;;;;;5033966;28;20241;-75
2022/04/26 03:59:13;;;;;;;21.83;13.80;;;8.20;99.90;;;;;;5034971;28;20237;-75
2022/04/26 04:01:39;;;;;;;19.33;13.63;;;8.10;99.90;;;;;;5017193;28;20205;-75
2022/04/26 04:04:05;;;;;;;18.20;13.27;;;8.10;99.90;;;;;;5000925;28;20702;-75
2022/04/26 04:06:30;;;;;;;20.47;12.70;;;8.10;99.90;;;;;;5017322;28;20259;-75
2022/04/26 04:08:56;;;;;;;20.03;12.57;;;8.20;99.90;;;;;;5017109;28;20218;-75
2022/04/26 04:11:22;;;;;;;19.40;13.10;;;8.10;99.90;;;;;;5016842;28;20269;-75
2022/04/26 04:13:48;;;;;;;22.73;13.97;;;8.10;99.90;;;;;;5017086;28;20260;-75
2022/04/26 04:16:14;;;;;;;20.37;13.40;;;8.10;99.90;;;;;;5017033;28;20224;-75
2022/04/26 04:21:24;;;;;;;22.93;14.20;;;8.20;99.90;;;;;;5034665;28;20328;-75
2022/04/26 04:23:49;;;;;;;21.83;14.80;;;8.10;99.90;;;;;;5033389;28;20256;-75
2022/04/26 04:26:15;;;;;;;21.90;14.53;;;8.10;99.90;;;;;;5000854;28;20177;-75
2022/04/26 04:28:40;;;;;;;24.03;15.30;;;8.10;99.90;;;;;;5000330;28;20214;-75
2022/04/26 04:31:08;;;;;;;24.50;15.47;;;8.10;99.90;;;;;;5016994;28;20263;-75
2022/04/26 04:33:33;;;;;;;23.40;14.43;;;8.20;99.90;;;;;;5016534;28;20171;-75
2022/04/26 04:35:59;;;;;;;21.67;14.50;;;8.10;99.90;;;;;;5000464;28;20171;-75
2022/04/26 04:38:26;;;;;;;22.97;13.80;;;8.10;99.90;;;;;;5016725;28;20210;-75
2022/04/26 04:40:53;;;;;;;20.67;14.60;;;8.10;99.90;;;;;;5000373;28;20209;-75
2022/04/26 04:43:18;;;;;;;22.47;14.50;;;8.00;99.90;;;;;;5016225;28;20186;-75
2022/04/26 04:45:44;;;;;;;22.77;13.90;;;7.90;99.90;;;;;;5000474;28;20204;-75
2022/04/26 04:48:09;;;;;;;22.93;14.53;;;7.80;99.90;;;;;;5000166;28;20178;-75
2022/04/26 04:50:35;;;;;;;21.30;13.67;;;7.70;99.90;;;;;;4999799;28;20227;-75
2022/04/26 04:53:01;;;;;;;22.17;14.13;;;7.80;99.90;;;;;;4999965;28;20178;-75
2022/04/26 04:55:27;;;;;;;21.20;13.80;;;7.80;99.90;;;;;;5016302;28;20181;-75
2022/04/26 04:57:52;;;;;;;22.90;14.33;;;7.80;99.90;;;;;;5016826;28;20185;-75
2022/04/26 05:00:18;;;;;;;19.73;12.47;;;7.70;99.90;;;;;;5033877;28;20193;-74
2022/04/26 05:02:44;;;;;;;20.47;13.20;;;7.70;99.90;;;;;;5015983;28;20321;-75
2022/04/26 05:05:10;;;;;;;22.93;14.40;;;7.60;99.90;;;;;;4999984;28;20191;-75
2022/04/26 05:07:36;;;;;;;21.07;13.53;;;7.60;99.90;;;;;;5016002;28;20178;-75
2022/04/26 05:10:06;;;;;;;22.10;13.37;;;7.60;99.90;;;;;;5015923;28;20205;-75
2022/04/26 05:12:32;;;;;;;23.23;13.73;;;7.50;99.90;;;;;;5032084;28;20174;-75
2022/04/26 05:14:58;;;;;;;20.83;13.17;;;7.60;99.90;;;;;;5033848;28;20172;-76
2022/04/26 05:17:26;;;;;;;19.93;12.43;;;7.60;99.90;;;;;;5015972;28;20177;-76
2022/04/26 05:19:51;;;;;;;20.20;12.57;;;7.70;99.90;;;;;;5015717;28;20223;-75
2022/04/26 05:22:17;;;;;;;18.23;11.90;;;7.80;99.90;;;;;;4999258;28;20591;-75
2022/04/26 05:24:56;;;;;;;18.00;11.80;;;7.70;99.90;;;;;;5015919;28;20187;-76
2022/04/26 05:27:24;;;;;;;18.63;12.00;;;7.70;99.90;;;;;;5001229;28;20258;-76
2022/04/26 05:29:49;;;;;;;17.97;11.67;;;7.80;99.90;;;;;;5015599;28;20223;-76
2022/04/26 05:32:22;;;;;;;16.57;11.40;;;7.90;99.90;;;;;;5014843;28;20169;-76
2022/04/26 05:34:58;;;;;;;17.30;11.10;;;8.00;99.90;;;;;;4999261;28;20175;-76
2022/04/26 05:37:27;;;;;;;16.67;10.53;;;8.00;99.90;;;;;;5015472;28;20177;-76
2022/04/26 05:39:55;;;;;;;15.20;10.30;;;8.00;99.90;;;;;;5031971;28;20687;-76
2022/04/26 05:42:20;;;;;;;17.33;10.97;;;8.00;99.90;;;;;;5015443;28;20178;-76
2022/04/26 05:44:46;;;;;;;15.57;10.13;;;7.90;99.90;;;;;;4999040;28;20255;-76
2022/04/26 05:47:12;;;;;;;12.27;8.60;;;8.00;99.90;;;;;;5015339;28;20590;-76
2022/04/26 05:49:37;;;;;;;13.97;10.17;;;8.10;99.90;;;;;;5014990;28;20257;-75
2022/04/26 05:52:04;;;;;;;14.93;9.33;;;8.50;99.90;;;;;;4998664;28;20204;-75
2022/04/26 05:54:30;;;;;;;12.40;8.93;;;8.70;99.90;;;;;;4998971;28;20193;-75
2022/04/26 05:56:56;;;;;;;10.47;8.30;;;8.80;99.90;;;;;;4999179;28;20224;-74
2022/04/26 05:59:22;;;;;;;11.47;7.40;;;9.00;99.90;;;;;;5015019;28;20195;-75
2022/04/26 06:01:49;;;;;;;11.03;7.87;;;9.20;99.90;;;;;;5015306;28;20267;-77
2022/04/26 06:04:15;;;;;;;12.17;8.70;;;9.20;99.90;;;;;;5015269;28;20174;-76
2022/04/26 06:06:40;;;;;;;10.63;7.70;;;8.90;99.90;;;;;;5014935;28;20170;-75
2022/04/26 06:09:06;;;;;;;11.10;8.37;;;8.50;99.90;;;;;;5015071;28;20585;-75
2022/04/26 06:11:32;;;;;;;12.67;9.20;;;8.30;99.90;;;;;;4998299;28;20183;-77
2022/04/26 06:13:58;;;;;;;13.17;9.43;;;8.10;99.90;;;;;;5015255;28;20244;-75
2022/04/26 06:16:24;;;;;;;14.43;9.83;;;8.00;99.90;;;;;;4998537;28;20198;-76
2022/04/26 06:18:50;;;;;;;13.77;10.67;;;7.90;99.90;;;;;;5032365;28;20247;-76
2022/04/26 06:21:16;;;;;;;17.00;11.10;;;7.90;99.90;;;;;;4998375;28;20208;-76
2022/04/26 06:23:42;;;;;;;16.23;10.97;;;7.90;99.90;;;;;;5014558;28;20181;-76
2022/04/26 06:26:08;;;;;;;17.23;11.47;;;7.80;99.90;;;;;;5014951;28;20228;-75
2022/04/26 06:28:33;;;;;;;16.13;11.43;;;7.80;99.90;;;;;;5032241;28;20201;-76
2022/04/26 06:31:00;;;;;;;17.23;11.30;;;7.80;99.90;;;;;;5014723;28;20665;-77
2022/04/26 06:33:26;;;;;;;15.33;10.80;;;7.70;99.90;;;;;;5014415;28;20341;-75
2022/04/26 06:35:52;;;;;;;16.93;10.80;;;7.70;99.90;;;;;;5014608;28;20260;-75
2022/04/26 06:38:18;;;;;;;15.80;10.17;;;7.60;99.90;;;;;;5014527;28;20267;-78
2022/04/26 06:40:46;;;;;;;14.83;10.27;;;7.60;99.90;;;;;;5014463;28;20180;-75
2022/04/26 06:43:12;;;;;;;16.10;9.67;;;7.60;99.90;;;;;;5032229;28;20161;-75
2022/04/26 06:45:38;;;;;;;16.87;10.20;;;7.60;99.90;;;;;;4998399;28;20185;-75
2022/04/26 06:48:11;;;;;;;16.70;10.07;;;7.60;99.90;;;;;;5014416;28;20176;-76
2022/04/26 06:50:37;;;;;;;14.17;9.57;;;7.60;99.90;;;;;;5071458;22;20650;-75
2022/04/26 06:53:03;;;;;;;16.20;10.30;;;7.60;99.90;;;;;;5017707;28;20203;-75
2022/04/26 06:55:29;;;;;;;16.23;9.97;;;7.60;99.90;;;;;;5001613;28;20192;-75
2022/04/26 06:57:54;;;;;;;17.07;10.43;;;7.60;99.90;;;;;;5034047;28;20168;-75
2022/04/26 07:00:20;;;;;;;17.23;10.57;;;7.60;99.90;;;;;;5017601;28;20669;-75
2022/04/26 07:02:46;;;;;;;15.83;10.57;;;7.60;99.90;;;;;;5033834;28;20184;-75
2022/04/26 07:05:14;;;;;;;14.47;10.13;;;7.60;99.90;;;;;;5034156;28;20238;-75
2022/04/26 07:07:40;;;;;;;16.67;10.90;;;7.60;99.90;;;;;;5050529;28;20277;-75
2022/04/26 07:10:07;;;;;;;15.80;10.30;;;7.60;99.90;;;;;;5033968;28;20231;-75
2022/04/26 07:12:34;;;;;;;14.90;9.97;;;7.70;99.90;;;;;;5033603;28;20212;-75
2022/04/26 07:15:00;;;;;;;15.57;10.40;;;7.70;99.90;;;;;;5033994;28;20185;-75
2022/04/26 07:17:26;;;;;;;17.77;10.13;;;7.70;99.90;;;;;;5033829;28;20181;-75
2022/04/26 07:19:52;;;;;;;16.33;10.63;;;7.70;99.90;;;;;;5033784;28;20350;-75
2022/04/26 07:22:17;;;;;;;14.63;10.17;;;7.80;99.90;;;;;;5017154;28;20271;-75
2022/04/26 07:24:44;;;;;;;16.10;10.60;;;7.90;99.90;;;;;;5033864;28;20276;-75
2022/04/26 07:27:10;;;;;;;16.53;10.30;;;7.90;99.90;;;;;;5050749;28;20180;-75
2022/04/26 07:29:41;;;;;;;16.50;10.27;;;8.00;99.90;;;;;;5050326;28;20215;-75
2022/04/26 07:32:07;;;;;;;15.30;10.30;;;8.00;99.90;;;;;;5033582;28;20189;-76
2022/04/26 07:34:33;;;;;;;14.83;9.77;;;8.00;99.90;;;;;;5034056;28;20177;-75
2022/04/26 07:37:00;;;;;;;12.70;9.17;;;8.10;99.90;;;;;;5017521;28;20235;-75
2022/04/26 07:39:26;;;;;;;13.93;9.90;;;8.10;99.90;;;;;;5034016;28;20190;-75
2022/04/26 07:41:52;;;;;;;14.83;10.07;;;8.20;99.90;;;;;;5033691;28;20198;-75
2022/04/26 07:44:18;;;;;;;15.40;10.60;;;8.30;99.90;;;;;;5033740;28;20652;-75
2022/04/26 07:46:46;;;;;;;16.47;10.73;;;8.20;99.90;;;;;;5051376;28;20169;-75
2022/04/26 07:49:15;;;;;;;18.43;11.73;;;8.30;99.90;;;;;;5033625;28;20584;-76
2022/04/26 07:51:42;;;;;;;17.80;11.70;;;8.30;99.90;;;;;;5033531;28;20185;-75
2022/04/26 07:54:08;;;;;;;18.87;12.07;;;8.30;99.90;;;;;;5033921;28;20170;-75
2022/04/26 07:56:35;;;;;;;17.63;11.53;;;8.30;99.90;;;;;;5036866;28;20175;-76
2022/04/26 07:59:03;;;;;;;29.90;20.33;;;8.40;99.90;;;;;;5037129;28;20553;-75
2022/04/26 08:01:32;;;;;;;18.17;11.73;;;8.30;99.90;;;;;;5055111;28;20239;-76
2022/04/26 08:03:59;;;;;;;18.17;11.83;;;8.40;99.90;;;;;;5037047;28;20174;-76
2022/04/26 08:06:25;;;;;;;16.40;11.57;;;8.50;99.90;;;;;;5055140;28;20509;-75
2022/04/26 08:08:51;;;;;;;15.90;11.17;;;8.50;99.90;;;;;;5036992;28;20194;-75
2022/04/26 08:11:17;;;;;;;16.47;11.27;;;8.40;99.90;;;;;;5020344;28;20237;-75
2022/04/26 08:13:43;;;;;;;15.90;10.73;;;8.50;99.90;;;;;;5037140;28;20220;-75
2022/04/26 08:16:09;;;;;;;16.10;11.93;;;8.40;99.90;;;;;;5053562;28;20174;-75
2022/04/26 08:18:35;;;;;;;15.07;10.60;;;8.40;99.90;;;;;;5036978;28;20180;-75
2022/04/26 08:21:01;;;;;;;15.57;11.23;;;8.50;99.90;;;;;;5036898;28;20282;-75
2022/04/26 08:23:27;;;;;;;14.03;10.37;;;8.50;99.90;;;;;;5036475;28;20185;-75
2022/04/26 08:28:37;;;;;;;22.90;17.87;;;8.40;99.90;;;;;;5025750;28;20257;-75
2022/04/26 08:31:05;;;;;;;18.30;13.87;;;8.30;99.90;;;;;;5020129;28;20549;-75
2022/04/26 08:33:34;;;;;;;17.40;12.70;;;8.30;99.90;;;;;;5053212;28;20264;-77
2022/04/26 08:36:00;;;;;;;14.03;10.10;;;8.30;99.90;;;;;;5036860;28;20648;-75
2022/04/26 08:38:26;;;;;;;19.13;15.00;;;8.30;99.90;;;;;;5036312;28;20551;-75
2022/04/26 08:40:51;;;;;;;13.43;10.37;;;8.30;99.90;;;;;;5036429;28;20658;-75
2022/04/26 08:43:17;;;;;;;14.70;10.27;;;8.30;99.90;;;;;;5053085;28;20197;-75
2022/04/26 08:45:46;;;;;;;13.97;9.90;;;8.30;99.90;;;;;;5036341;28;20682;-75
2022/04/26 08:50:59;;;;;;;12.90;9.27;;;8.30;99.90;;;;;;5039090;28;20222;-75
2022/04/26 08:53:27;;;;;;;14.03;10.20;;;8.30;99.90;;;;;;5036387;28;20165;-76
2022/04/26 08:55:55;;;;;;;12.10;8.70;;;8.30;99.90;;;;;;5053293;28;20648;-75
2022/04/26 08:58:23;;;;;;;15.60;9.10;;;8.40;99.90;;;;;;5020528;28;20554;-74
2022/04/26 09:01:06;;;;;;;12.93;9.33;;;8.40;99.90;;;;;;5019908;28;20191;-75
2022/04/26 09:03:37;;;;;;;12.60;8.73;;;8.40;99.90;;;;;;5020068;28;20204;-75
2022/04/26 09:06:07;;;;;;;13.23;9.50;;;8.50;99.90;;;;;;5003163;28;20175;-75
2022/04/26 09:08:36;;;;;;;12.30;8.73;;;8.50;99.90;;;;;;5035918;28;20281;-75
2022/04/26 09:11:03;;;;;;;12.50;9.40;;;8.60;99.90;;;;;;5020527;28;20211;-75
2022/04/26 09:13:39;;;;;;;13.00;9.37;;;8.60;99.90;;;;;;5036385;28;20175;-75
2022/04/26 09:16:06;;;;;;;14.17;10.93;;;8.70;99.90;;;;;;5036266;28;20175;-75
2022/04/26 09:18:32;;;;;;;15.10;10.90;;;8.70;99.90;;;;;;5052861;28;20180;-75
2022/04/26 09:21:18;;;;;;;11.80;9.03;;;8.80;99.90;;;;;;5036404;28;20207;-77
2022/04/26 09:23:45;;;;;;;15.87;10.73;;;8.90;99.90;;;;;;5019105;28;20242;-77
2022/04/26 09:26:13;;;;;;;12.80;9.80;;;8.90;99.90;;;;;;5019962;28;20662;-76
2022/04/26 09:28:42;;;;;;;28.47;23.00;;;9.00;99.90;;;;;;5003427;28;20258;-76
2022/04/26 09:31:25;;;;;;;14.17;11.53;;;9.00;99.90;;;;;;5036048;28;20172;-76
2022/04/26 09:34:05;;;;;;;14.53;10.83;;;9.00;99.90;;;;;;5036037;28;20182;-75
2022/04/26 09:36:41;;;;;;;18.13;14.30;;;9.10;99.90;;;;;;5036443;28;20632;-75
2022/04/26 09:39:08;;;;;;;25.43;19.87;;;9.10;99.90;;;;;;5036157;28;20206;-74
2022/04/26 09:41:35;;;;;;;18.57;14.30;;;9.00;99.90;;;;;;5019451;28;20183;-76
2022/04/26 09:44:08;;;;;;;22.73;17.50;;;8.90;99.90;;;;;;5035955;28;20179;-75
2022/04/26 09:46:43;;;;;;;18.83;14.07;;;8.80;99.90;;;;;;5035988;28;20529;-77
2022/04/26 09:49:18;;;;;;;18.17;13.53;;;8.90;99.90;;;;;;5035464;28;20205;-75
2022/04/26 09:51:45;;;;;;;14.80;11.60;;;9.00;99.90;;;;;;5035544;28;20168;-74
2022/04/26 09:54:11;;;;;;;13.03;8.53;;;9.10;99.90;;;;;;5052017;28;20647;-74
2022/04/26 09:56:38;;;;;;;16.13;13.17;;;9.10;99.90;;;;;;5019281;28;20230;-74
2022/04/26 09:59:04;;;;;;;8.67;7.73;;;9.20;99.90;;;;;;5035178;28;20201;-74
2022/04/26 10:01:34;;;;;;;8.03;5.70;;;9.20;99.90;;;;;;5002690;28;20208;-74
2022/04/26 10:04:06;;;;;;;7.00;5.43;;;9.20;99.90;;;;;;5019635;28;20182;-75
2022/04/26 10:06:36;;;;;;;4.97;4.20;;;9.60;99.90;;;;;;5035574;28;20532;-75
2022/04/26 10:09:03;;;;;;;6.20;5.60;;;9.50;99.90;;;;;;5018898;28;20208;-76
2022/04/26 10:11:29;;;;;;;5.33;4.30;;;9.80;99.90;;;;;;5018953;28;20183;-76
2022/04/26 10:13:56;;;;;;;4.77;4.27;;;9.70;99.90;;;;;;5018910;28;20176;-76
2022/04/26 10:16:23;;;;;;;5.90;5.30;;;9.50;99.90;;;;;;5018870;28;20215;-75
2022/04/26 10:18:49;;;;;;;6.03;4.93;;;9.50;99.90;;;;;;5034754;28;20190;-75
2022/04/26 10:21:38;;;;;;;8.50;7.67;;;9.50;99.90;;;;;;5035210;28;20180;-76
2022/04/26 10:24:23;;;;;;;6.63;6.00;;;9.70;99.90;;;;;;5023187;28;20558;-76
2022/04/26 10:26:52;;;;;;;7.20;5.07;;;9.70;99.90;;;;;;5035262;28;20204;-73
2022/04/26 10:29:21;;;;;;;8.27;7.47;;;9.40;99.90;;;;;;5018760;28;21067;-73
2022/04/26 10:32:00;;;;;;;5.63;5.00;;;9.90;99.90;;;;;;5002150;28;20185;-74
2022/04/26 10:34:29;;;;;;;6.70;6.00;;;10.20;99.90;;;;;;5034913;28;20625;-75
2022/04/26 10:37:07;;;;;;;6.80;6.10;;;10.50;99.90;;;;;;5018656;28;20183;-75
2022/04/26 10:39:37;;;;;;;6.30;5.57;;;10.00;99.90;;;;;;5034900;28;20200;-75
2022/04/26 10:42:11;;;;;;;9.23;8.23;;;9.70;99.90;;;;;;5018065;28;20215;-75
2022/04/26 10:44:51;;;;;;;8.70;6.30;;;9.50;99.90;;;;;;5052602;28;20525;-75
2022/04/26 10:47:25;;;;;;;11.37;8.87;;;9.30;99.90;;;;;;5018543;28;20169;-75
2022/04/26 10:49:52;;;;;;;7.03;5.70;;;9.30;99.90;;;;;;5034509;28;20227;-74
2022/04/26 10:52:18;;;;;;;7.23;6.33;;;9.20;99.90;;;;;;5052369;28;20173;-75
2022/04/26 10:57:16;;;;;;;6.60;5.97;;;9.30;99.90;;;;;;5052614;28;20587;-75
2022/04/26 10:59:59;;;;;;;10.63;8.10;;;9.20;99.90;;;;;;5034852;28;20201;-75
2022/04/26 11:02:27;;;;;;;6.90;6.10;;;9.20;99.90;;;;;;5034818;28;20178;-75
2022/04/26 11:04:57;;;;;;;7.10;6.37;;;9.20;99.90;;;;;;5034760;28;20181;-75
2022/04/26 11:07:26;;;;;;;8.57;7.70;;;9.20;99.90;;;;;;5018199;28;20209;-75
2022/04/26 11:09:53;;;;;;;8.07;6.77;;;9.30;99.90;;;;;;5035273;28;20216;-75
2022/04/26 11:12:29;;;;;;;11.40;9.33;;;9.40;99.90;;;;;;5052069;28;20244;-75
2022/04/26 11:15:05;;;;;;;6.63;5.20;;;9.40;99.90;;;;;;5034637;28;20174;-75
2022/04/26 11:17:31;;;;;;;5.73;4.83;;;9.30;99.90;;;;;;5018920;28;20175;-75
2022/04/26 11:19:59;;;;;;;7.97;7.10;;;9.30;99.90;;;;;;5034562;28;20606;-75
2022/04/26 11:22:26;;;;;;;10.23;7.43;;;9.20;99.90;;;;;;5034566;28;20182;-75
2022/04/26 11:28:02;;;;;;;12.77;9.90;;;9.10;99.90;;;;;;5051530;28;20207;-75
2022/04/26 11:30:43;;;;;;;10.07;8.93;;;9.10;99.90;;;;;;5020131;28;20218;-75
2022/04/26 11:33:23;;;;;;;10.13;9.13;;;8.90;99.90;;;;;;5055938;28;20205;-75
2022/04/26 11:35:54;;;;;;;11.90;10.70;;;8.80;99.90;;;;;;5024523;28;20237;-75
2022/04/26 11:38:20;;;;;;;6.57;5.30;;;8.80;99.90;;;;;;5021925;28;20192;-75
2022/04/26 11:40:49;;;;;;;7.13;5.97;;;8.90;99.90;;;;;;5038042;28;20194;-75
2022/04/26 11:43:17;;;;;;;10.10;9.10;;;8.90;99.90;;;;;;5038189;28;20220;-75
2022/04/26 11:45:46;;;;;;;13.40;11.80;;;8.80;99.90;;;;;;5037860;28;20188;-74
2022/04/26 11:48:13;;;;;;;10.13;8.73;;;8.80;99.90;;;;;;5038171;28;20197;-74
2022/04/26 11:50:41;;;;;;;6.63;5.83;;;8.70;99.90;;;;;;5038090;28;20209;-74
2022/04/26 11:53:11;;;;;;;10.93;9.80;;;8.80;99.90;;;;;;5037951;28;20169;-74
2022/04/26 11:55:37;;;;;;;12.57;11.13;;;8.70;99.90;;;;;;5038136;28;20265;-74
2022/04/26 11:58:16;;;;;;;9.67;8.70;;;8.70;99.90;;;;;;5037680;28;20264;-74
2022/04/26 12:01:04;;;;;;;7.67;6.77;;;8.80;99.90;;;;;;5037834;28;20240;-74
2022/04/26 12:03:38;;;;;;;7.27;5.57;;;8.90;99.90;;;;;;5037757;28;20198;-73
2022/04/26 12:06:06;;;;;;;6.70;4.93;;;8.90;99.90;;;;;;5037875;28;20203;-73
2022/04/26 12:08:39;;;;;;;6.00;5.40;;;8.90;99.90;;;;;;5021460;28;20178;-76
2022/04/26 12:11:24;;;;;;;6.83;5.37;;;8.90;99.90;;;;;;5037807;28;20170;-75
2022/04/26 12:14:01;;;;;;;6.50;5.53;;;8.90;99.90;;;;;;5055116;28;20170;-75
2022/04/26 12:16:28;;;;;;;21.20;14.97;;;8.90;99.90;;;;;;5037594;28;20176;-75
2022/04/26 12:19:04;;;;;;;14.63;11.30;;;8.80;99.90;;;;;;5055070;28;20170;-74
2022/04/26 12:21:49;;;;;;;23.83;17.33;;;8.90;99.90;;;;;;5037632;28;20357;-75
2022/04/26 12:24:15;;;;;;;20.10;12.20;;;8.90;99.90;;;;;;5037458;28;20176;-75
2022/04/26 12:26:55;;;;;;;13.53;11.27;;;8.90;99.90;;;;;;5037191;28;20527;-76
2022/04/26 12:29:22;;;;;;;14.07;10.90;;;8.80;99.90;;;;;;5054962;28;20201;-75
2022/04/26 12:31:49;;;;;;;7.33;5.90;;;8.90;99.90;;;;;;5037240;28;20179;-75
2022/04/26 12:34:18;;;;;;;5.93;4.93;;;8.90;99.90;;;;;;5020798;28;20174;-75
2022/04/26 12:36:57;;;;;;;6.43;5.47;;;9.00;99.90;;;;;;5020521;28;20179;-76
2022/04/26 12:39:40;;;;;;;6.80;5.87;;;9.10;99.90;;;;;;5036985;28;20220;-75
2022/04/26 12:42:07;;;;;;;7.00;5.50;;;9.10;99.90;;;;;;5036534;28;20252;-76
2022/04/26 12:44:33;;;;;;;8.67;7.30;;;9.20;99.90;;;;;;5020916;28;20181;-75
2022/04/26 12:52:47;;;;;;;7.20;6.03;;;9.50;99.90;;;;;;5054762;28;20264;-75
2022/04/26 12:55:13;;;;;;;6.90;6.20;;;9.60;99.90;;;;;;5020515;28;20173;-75
2022/04/26 12:57:50;;;;;;;5.93;5.20;;;9.70;99.90;;;;;;5036583;28;20202;-75
2022/04/26 13:00:17;;;;;;;6.97;5.17;;;9.80;99.90;;;;;;5037034;28;20191;-75
2022/04/26 13:02:42;;;;;;;7.67;5.50;;;9.90;99.90;;;;;;5020506;28;20180;-75
2022/04/26 13:05:08;;;;;;;7.53;5.90;;;9.90;99.90;;;;;;5036673;28;20188;-75
2022/04/26 13:07:34;;;;;;;6.00;5.40;;;9.80;99.90;;;;;;5020094;28;20187;-75
2022/04/26 13:09:59;;;;;;;7.30;5.73;;;9.90;99.90;;;;;;5036350;28;20802;-75
2022/04/26 13:12:25;;;;;;;7.00;6.07;;;9.90;99.90;;;;;;5003807;28;20178;-75
2022/04/26 13:14:50;;;;;;;7.73;5.80;;;9.80;99.90;;;;;;5020105;28;20170;-75
2022/04/26 13:17:20;;;;;;;7.77;6.07;;;9.80;99.90;;;;;;5003346;28;20591;-75
2022/04/26 13:19:46;;;;;;;7.47;6.57;;;9.70;99.90;;;;;;5020149;28;20284;-75
2022/04/26 13:22:12;;;;;;;9.90;8.90;;;9.60;99.90;;;;;;5003276;28;20180;-77
2022/04/26 13:24:38;;;;;;;7.73;6.20;;;9.50;99.90;;;;;;5019957;28;20230;-75
2022/04/26 13:27:06;;;;;;;8.73;6.67;;;9.50;99.90;;;;;;5003629;28;20177;-75
2022/04/26 13:29:31;;;;;;;8.67;6.53;;;9.50;99.90;;;;;;5020010;28;20227;-74
2022/04/26 13:31:58;;;;;;;8.10;6.33;;;9.50;99.90;;;;;;5036196;28;20169;-74
2022/04/26 13:34:24;;;;;;;7.67;6.00;;;9.50;99.90;;;;;;5003729;28;20168;-75
2022/04/26 13:36:49;;;;;;;7.60;6.27;;;9.60;99.90;;;;;;5035904;28;20230;-74
2022/04/26 13:39:15;;;;;;;8.63;6.67;;;9.60;99.90;;;;;;5003274;28;20181;-74
2022/04/26 13:41:41;;;;;;;7.93;6.63;;;9.60;99.90;;;;;;5035742;28;20226;-75
2022/04/26 13:44:06;;;;;;;7.40;6.13;;;9.60;99.90;;;;;;5003147;28;20181;-75
2022/04/26 13:46:32;;;;;;;7.67;6.20;;;9.60;99.90;;;;;;5019223;28;20245;-75
2022/04/26 13:48:57;;;;;;;7.20;6.50;;;9.60;99.90;;;;;;5003110;28;20201;-75
2022/04/26 13:51:29;;;;;;;5.97;5.37;;;9.60;99.90;;;;;;5002760;28;20192;-75
2022/04/26 13:53:54;;;;;;;8.33;6.57;;;9.70;99.90;;;;;;5003675;28;20177;-75
2022/04/26 13:56:20;;;;;;;6.57;5.83;;;9.60;99.90;;;;;;5019109;28;20180;-75
2022/04/26 13:58:45;;;;;;;6.83;5.87;;;9.60;99.90;;;;;;5035878;28;20176;-75
2022/04/26 14:01:11;;;;;;;8.17;5.80;;;9.50;99.90;;;;;;5019283;28;20203;-75
2022/04/26 14:03:37;;;;;;;6.57;5.43;;;9.60;99.90;;;;;;5035335;28;20173;-75
2022/04/26 14:06:02;;;;;;;40.83;30.83;;;9.60;99.90;;;;;;5019316;28;20247;-75
2022/04/26 14:08:31;;;;;;;20.93;16.30;;;9.60;99.90;;;;;;5035210;28;20177;-74
2022/04/26 14:10:57;;;;;;;11.73;9.77;;;9.60;99.90;;;;;;5035083;28;20197;-74
2022/04/26 14:13:22;;;;;;;5.37;4.43;;;9.60;99.90;;;;;;5018732;28;20611;-74
2022/04/26 14:24:06;;;;;;;6.80;5.53;;;9.60;99.90;;;;;;5024079;28;20203;-74
2022/04/26 14:26:31;;;;;;;5.77;4.90;;;9.50;99.90;;;;;;5019390;28;20182;-75
2022/04/26 14:28:57;;;;;;;5.73;4.43;;;9.50;99.90;;;;;;5018506;28;20225;-75
2022/04/26 14:31:23;;;;;;;8.60;6.00;;;9.50;99.90;;;;;;5018737;28;20288;-75
2022/04/26 14:33:48;;;;;;;5.00;4.33;;;9.50;99.90;;;;;;5018503;28;20204;-74
2022/04/26 14:36:14;;;;;;;5.00;4.43;;;9.40;99.90;;;;;;5018761;28;20175;-74
2022/04/26 14:38:40;;;;;;;5.10;4.60;;;9.40;99.90;;;;;;5035014;28;20244;-74
2022/04/26 14:41:05;;;;;;;8.00;6.53;;;9.40;99.90;;;;;;5002315;28;20267;-74
2022/04/26 14:43:31;;;;;;;5.87;4.83;;;9.40;99.90;;;;;;5001950;28;20182;-74
2022/04/26 14:45:56;;;;;;;5.83;4.80;;;9.40;99.90;;;;;;5018486;28;20270;-75
2022/04/26 14:48:23;;;;;;;5.07;4.57;;;9.50;99.90;;;;;;5002317;28;20709;-74
2022/04/26 14:50:49;;;;;;;6.23;4.80;;;9.50;99.90;;;;;;5018105;28;20224;-75
2022/04/26 14:53:15;;;;;;;7.27;4.40;;;9.50;99.90;;;;;;5034738;28;20258;-75
2022/04/26 14:55:41;;;;;;;5.00;4.40;;;9.50;99.90;;;;;;5034656;28;20600;-75
2022/04/26 14:58:09;;;;;;;5.00;4.50;;;9.50;99.90;;;;;;5018557;28;20247;-75
2022/04/26 15:00:36;;;;;;;6.00;4.60;;;9.60;99.90;;;;;;5002790;28;20196;-75
2022/04/26 15:06:23;;;;;;;5.30;4.67;;;9.60;99.90;;;;;;5055742;28;20210;-75
2022/04/26 15:11:34;;;;;;;5.93;4.93;;;9.70;99.90;;;;;;5027782;28;20176;-74
2022/04/26 15:16:49;;;;;;;8.40;4.97;;;9.60;99.90;;;;;;5027530;28;20195;-74
2022/04/26 15:19:15;;;;;;;5.77;4.70;;;9.60;99.90;;;;;;5022339;28;20288;-75
2022/04/26 15:21:43;;;;;;;5.47;4.53;;;9.60;99.90;;;;;;5038210;28;20176;-75
2022/04/26 15:24:09;;;;;;;5.10;4.60;;;9.50;99.90;;;;;;5006170;28;20181;-74
2022/04/26 15:26:36;;;;;;;5.07;4.57;;;9.50;99.90;;;;;;5038276;28;20180;-74
2022/04/26 15:29:02;;;;;;;5.90;4.70;;;9.50;99.90;;;;;;5022118;28;20205;-74
2022/04/26 15:31:28;;;;;;;4.70;4.30;;;9.50;99.90;;;;;;5005947;28;20180;-74
2022/04/26 15:33:54;;;;;;;6.03;4.43;;;9.40;99.90;;;;;;5038057;28;20265;-74
2022/04/26 15:36:20;;;;;;;6.47;4.87;;;9.40;99.90;;;;;;5005353;28;20179;-74
2022/04/26 15:38:47;;;;;;;5.27;4.20;;;9.30;99.90;;;;;;5021956;28;20654;-74
2022/04/26 15:41:13;;;;;;;5.93;5.07;;;9.40;99.90;;;;;;5005755;28;20266;-74
2022/04/26 15:43:39;;;;;;;6.57;4.63;;;9.40;99.90;;;;;;5055915;28;20170;-74
2022/04/26 15:46:08;;;;;;;4.97;4.30;;;9.40;99.90;;;;;;5038015;28;20227;-74
2022/04/26 15:48:37;;;;;;;4.70;4.27;;;9.40;99.90;;;;;;5021724;28;20181;-73
2022/04/26 15:51:04;;;;;;;5.77;4.53;;;9.30;99.90;;;;;;5038079;28;20215;-73
2022/04/26 15:53:29;;;;;;;18.83;13.40;;;9.30;99.90;;;;;;5021266;28;20237;-73
2022/04/26 15:55:55;;;;;;;9.17;7.70;;;9.30;99.90;;;;;;5037901;28;20214;-74
2022/04/26 15:58:21;;;;;;;13.37;11.97;;;9.20;99.90;;;;;;5037797;28;20175;-74
2022/04/26 16:00:47;;;;;;;14.07;11.13;;;9.20;99.90;;;;;;5037621;28;20574;-75
2022/04/26 16:03:12;;;;;;;8.77;7.80;;;9.20;99.90;;;;;;5037577;28;20177;-75
2022/04/26 16:05:40;;;;;;;6.10;5.50;;;9.10;99.90;;;;;;5037566;28;20183;-75
2022/04/26 16:08:07;;;;;;;6.60;5.90;;;9.10;99.90;;;;;;5021419;28;20191;-75
2022/04/26 16:21:32;;;;;;;7.27;5.90;;;9.00;99.90;;;;;;5040170;28;20172;-75
2022/04/26 16:23:59;;;;;;;8.37;5.77;;;8.90;99.90;;;;;;5004208;28;20206;-75
2022/04/26 16:26:27;;;;;;;6.77;5.40;;;9.00;99.90;;;;;;5037717;28;20171;-75
2022/04/26 16:28:53;;;;;;;7.17;5.77;;;8.90;99.90;;;;;;5037349;28;20207;-75
2022/04/26 16:31:24;;;;;;;6.73;5.67;;;8.80;99.90;;;;;;5020653;28;20196;-75
2022/04/26 16:33:50;;;;;;;8.47;5.57;;;8.80;99.90;;;;;;5021768;28;20171;-75
2022/04/26 16:36:17;;;;;;;6.23;5.57;;;8.80;99.90;;;;;;5004456;28;20167;-75
2022/04/26 16:38:43;;;;;;;7.43;5.67;;;8.90;99.90;;;;;;5004611;28;20180;-75
2022/04/26 16:41:09;;;;;;;6.20;5.60;;;9.00;99.90;;;;;;5020817;28;20700;-75
2022/04/26 16:43:34;;;;;;;8.00;6.10;;;9.10;99.90;;;;;;5036931;28;20173;-75
2022/04/26 16:46:03;;;;;;;7.23;5.90;;;9.10;99.90;;;;;;5020667;28;20178;-75
2022/04/26 16:48:29;;;;;;;5.87;5.17;;;9.10;99.90;;;;;;5036816;28;20225;-75
2022/04/26 16:50:54;;;;;;;5.97;5.10;;;9.00;99.90;;;;;;5004052;28;20216;-75
2022/04/26 16:53:20;;;;;;;6.20;5.60;;;9.00;99.90;;;;;;5020465;28;20180;-77
2022/04/26 16:55:46;;;;;;;5.93;5.30;;;8.90;99.90;;;;;;5020724;28;20546;-75
2022/04/26 16:58:13;;;;;;;7.00;5.40;;;8.90;99.90;;;;;;5020591;28;20177;-75
2022/04/26 17:00:41;;;;;;;6.67;5.60;;;8.90;99.90;;;;;;5036766;28;20193;-75
2022/04/26 17:03:06;;;;;;;7.07;5.63;;;8.90;99.90;;;;;;5036742;28;20176;-75
2022/04/26 17:05:32;;;;;;;7.27;5.80;;;8.90;99.90;;;;;;5020161;28;20187;-75
2022/04/26 17:07:58;;;;;;;8.37;5.80;;;8.90;99.90;;;;;;5003666;28;20716;-75
2022/04/26 17:10:24;;;;;;;6.20;5.47;;;8.90;99.90;;;;;;5003541;28;20211;-76
2022/04/26 17:13:28;;;;;;;6.80;5.67;;;8.90;99.90;;;;;;5019595;28;20182;-75
2022/04/26 17:15:54;;;;;;;5.80;5.27;;;8.90;99.90;;;;;;5036238;28;20164;-75